Time;durP1;ratioP1;P1;durP2;ratioP2;P2;SDS_P1;SDS_P2;PMS_P1;PMS_P2;Temp;Humidity;BMP_temperature;BMP_pressure;BME280_temperature;BME280_humidity;BME280_pressure;Samples;Min_cycle;Max_cycle;Signal;HPM_P1;HPM_P2
2022/06/21 00:02:22;;;;;;;;;8.00;5.00;;;;;;;;5068362;27;51181;-57
2022/06/21 00:05:13;;;;;;;;;7.25;6.00;;;;;;;;5068396;27;51147;-58
2022/06/21 00:07:57;;;;;;;;;5.00;5.00;;;;;;;;5067197;27;51479;-57
2022/06/21 00:10:42;;;;;;;;;6.75;6.00;;;;;;;;5064746;27;51103;-57
2022/06/21 00:13:30;;;;;;;;;8.50;6.00;;;;;;;;5068373;27;51137;-57
2022/06/21 00:16:15;;;;;;;;;7.50;6.75;;;;;;;;5069219;27;51118;-58
2022/06/21 00:18:59;;;;;;;;;7.25;6.25;;;;;;;;5067835;27;51596;-58
2022/06/21 00:21:45;;;;;;;;;7.75;6.00;;;;;;;;5066435;27;51142;-58
2022/06/21 00:24:29;;;;;;;;;6.75;6.25;;;;;;;;5067531;27;51086;-57
2022/06/21 00:27:15;;;;;;;;;4.25;4.00;;;;;;;;5067892;27;51119;-58
2022/06/21 00:29:59;;;;;;;;;12.00;6.25;;;;;;;;5066528;27;51269;-58
2022/06/21 00:32:44;;;;;;;;;11.00;6.00;;;;;;;;5065678;27;51073;-57
2022/06/21 00:35:29;;;;;;;;;9.75;6.00;;;;;;;;5066075;27;51179;-58
2022/06/21 00:38:14;;;;;;;;;7.50;5.25;;;;;;;;5061461;28;51372;-57
2022/06/21 00:41:01;;;;;;;;;11.25;9.25;;;;;;;;5061519;28;51234;-58
2022/06/21 00:43:51;;;;;;;;;5.75;5.25;;;;;;;;5062038;28;51025;-58
2022/06/21 00:46:42;;;;;;;;;6.00;6.00;;;;;;;;5061469;28;51439;-57
2022/06/21 00:49:28;;;;;;;;;8.00;5.50;;;;;;;;5061747;28;51021;-59
2022/06/21 00:52:15;;;;;;;;;6.25;5.75;;;;;;;;5061050;28;51144;-58
2022/06/21 00:55:02;;;;;;;;;7.00;6.00;;;;;;;;5061686;28;51208;-58
2022/06/21 00:57:51;;;;;;;;;10.25;5.25;;;;;;;;5061259;28;51552;-58
2022/06/21 01:00:37;;;;;;;;;5.25;5.25;;;;;;;;5061217;28;51147;-57
2022/06/21 01:03:24;;;;;;;;;9.00;4.75;;;;;;;;5059926;28;51372;-57
2022/06/21 01:06:10;;;;;;;;;9.50;5.00;;;;;;;;5060974;28;50990;-57
2022/06/21 01:08:58;;;;;;;;;9.00;5.00;;;;;;;;5060714;28;51115;-58
2022/06/21 01:11:46;;;;;;;;;7.75;6.50;;;;;;;;5060942;28;51828;-58
2022/06/21 01:14:31;;;;;;;;;9.25;6.25;;;;;;;;5061268;28;51056;-57
2022/06/21 01:17:17;;;;;;;;;9.50;6.00;;;;;;;;5060138;28;51254;-58
2022/06/21 01:20:04;;;;;;;;;6.00;5.00;;;;;;;;5061261;28;51093;-57
2022/06/21 01:22:58;;;;;;;;;5.00;5.00;;;;;;;;5060619;28;51107;-58
2022/06/21 01:25:54;;;;;;;;;6.00;6.00;;;;;;;;5061024;28;51164;-58
2022/06/21 01:28:38;;;;;;;;;9.50;7.75;;;;;;;;5060615;28;51434;-57
2022/06/21 01:31:22;;;;;;;;;10.75;6.50;;;;;;;;5060508;28;51048;-57
2022/06/21 01:34:15;;;;;;;;;6.50;5.00;;;;;;;;5061003;28;51134;-58
2022/06/21 01:37:08;;;;;;;;;8.00;6.25;;;;;;;;5060364;28;51139;-57
2022/06/21 01:39:55;;;;;;;;;8.00;8.00;;;;;;;;5060664;28;51117;-58
2022/06/21 01:42:46;;;;;;;;;8.00;6.00;;;;;;;;5060625;28;51014;-58
2022/06/21 01:45:34;;;;;;;;;10.75;7.25;;;;;;;;5060614;28;51086;-57
2022/06/21 01:48:22;;;;;;;;;10.25;10.00;;;;;;;;5060027;28;51425;-58
2022/06/21 01:51:09;;;;;;;;;9.25;7.75;;;;;;;;5060265;28;51143;-58
2022/06/21 01:53:54;;;;;;;;;11.25;8.25;;;;;;;;5060166;28;51340;-58
2022/06/21 01:56:39;;;;;;;;;10.50;7.00;;;;;;;;5059800;28;51102;-58
2022/06/21 01:59:33;;;;;;;;;11.75;8.00;;;;;;;;5060143;28;51142;-58
2022/06/21 02:02:26;;;;;;;;;10.75;6.75;;;;;;;;5059725;28;51460;-57
2022/06/21 02:05:17;;;;;;;;;9.25;6.00;;;;;;;;5060247;28;51457;-58
2022/06/21 02:08:05;;;;;;;;;9.25;6.25;;;;;;;;5060014;28;51110;-58
2022/06/21 02:10:59;;;;;;;;;9.25;7.50;;;;;;;;5060438;28;51186;-59
2022/06/21 02:13:46;;;;;;;;;9.25;7.25;;;;;;;;5059733;28;51127;-58
2022/06/21 02:16:32;;;;;;;;;8.50;5.75;;;;;;;;5059726;28;51183;-58
2022/06/21 02:19:48;;;;;;;;;10.50;6.50;;;;;;;;5060192;28;51440;-58
2022/06/21 02:22:33;;;;;;;;;10.50;7.00;;;;;;;;5016396;28;51279;-57
2022/06/21 02:25:20;;;;;;;;;6.00;6.00;;;;;;;;5059789;28;51173;-57
2022/06/21 02:28:05;;;;;;;;;8.00;7.75;;;;;;;;5059832;28;51093;-58
2022/06/21 02:30:51;;;;;;;;;7.25;5.50;;;;;;;;5059639;28;51369;-59
2022/06/21 02:33:36;;;;;;;;;9.50;6.50;;;;;;;;5059352;28;51041;-57
2022/06/21 02:36:24;;;;;;;;;10.00;7.00;;;;;;;;5059847;28;51090;-58
2022/06/21 02:39:14;;;;;;;;;7.75;7.00;;;;;;;;5059657;28;51165;-57
2022/06/21 02:42:10;;;;;;;;;9.75;6.00;;;;;;;;5059507;28;51191;-57
2022/06/21 02:44:58;;;;;;;;;11.25;7.25;;;;;;;;5059627;28;51442;-58
2022/06/21 02:47:44;;;;;;;;;6.75;5.75;;;;;;;;5059193;28;51080;-58
2022/06/21 02:50:29;;;;;;;;;8.75;5.00;;;;;;;;5043226;28;51003;-58
2022/06/21 02:53:34;;;;;;;;;5.00;5.00;;;;;;;;5039494;28;51117;-58
2022/06/21 02:56:25;;;;;;;;;7.25;5.50;;;;;;;;5039338;28;51115;-58
2022/06/21 02:59:09;;;;;;;;;8.00;7.00;;;;;;;;5039121;28;51533;-58
2022/06/21 03:01:57;;;;;;;;;12.00;10.25;;;;;;;;5039045;28;51066;-58
2022/06/21 03:04:52;;;;;;;;;14.25;8.25;;;;;;;;5038972;28;51553;-57
2022/06/21 03:07:40;;;;;;;;;11.50;10.75;;;;;;;;5039145;28;51192;-59
2022/06/21 03:10:26;;;;;;;;;8.00;8.00;;;;;;;;5039345;28;51412;-58
2022/06/21 03:13:19;;;;;;;;;12.00;9.75;;;;;;;;5039140;28;51225;-57
2022/06/21 03:16:06;;;;;;;;;10.50;9.50;;;;;;;;5039135;28;51203;-57
2022/06/21 03:18:52;;;;;;;;;14.50;10.50;;;;;;;;5038668;28;51175;-58
2022/06/21 03:21:36;;;;;;;;;14.75;12.50;;;;;;;;5039213;28;51092;-58
2022/06/21 03:24:22;;;;;;;;;14.25;13.25;;;;;;;;5038978;28;51061;-58
2022/06/21 03:27:10;;;;;;;;;14.00;12.75;;;;;;;;5040556;28;51091;-58
2022/06/21 03:29:56;;;;;;;;;15.50;13.75;;;;;;;;5065924;27;51548;-59
2022/06/21 03:32:41;;;;;;;;;18.50;14.50;;;;;;;;5062988;28;51001;-58
2022/06/21 03:35:26;;;;;;;;;16.75;13.25;;;;;;;;5063122;28;51603;-58
2022/06/21 03:38:10;;;;;;;;;15.00;12.50;;;;;;;;5062400;28;51176;-58
2022/06/21 03:44:01;;;;;;;;;12.75;11.75;;;;;;;;5062495;28;51133;-58
2022/06/21 03:46:50;;;;;;;;;16.75;13.00;;;;;;;;5062811;28;51107;-58
2022/06/21 03:49:40;;;;;;;;;19.00;13.00;;;;;;;;5062408;28;51097;-58
2022/06/21 03:52:44;;;;;;;;;16.25;13.00;;;;;;;;5062929;28;51064;-58
2022/06/21 03:55:39;;;;;;;;;17.00;14.25;;;;;;;;5062208;28;51465;-58
2022/06/21 03:58:30;;;;;;;;;17.00;12.75;;;;;;;;5062181;28;51050;-58
2022/06/21 04:01:22;;;;;;;;;14.25;12.00;;;;;;;;5062216;28;51308;-58
2022/06/21 04:04:20;;;;;;;;;15.50;11.75;;;;;;;;5062285;28;51165;-57
2022/06/21 04:07:19;;;;;;;;;17.00;13.50;;;;;;;;5062413;28;51352;-57
2022/06/21 04:10:21;;;;;;;;;18.50;14.50;;;;;;;;5062110;28;51071;-58
2022/06/21 04:13:26;;;;;;;;;13.75;10.50;;;;;;;;5062335;28;51419;-57
2022/06/21 04:16:27;;;;;;;;;13.00;12.50;;;;;;;;5061891;28;51083;-57
2022/06/21 04:19:15;;;;;;;;;12.50;10.25;;;;;;;;5062089;28;51079;-57
2022/06/21 04:22:04;;;;;;;;;16.75;13.75;;;;;;;;5061967;28;51203;-58
2022/06/21 04:25:17;;;;;;;;;16.00;14.00;;;;;;;;5062130;28;51053;-58
2022/06/21 04:28:16;;;;;;;;;14.25;12.00;;;;;;;;5013855;28;51436;-57
2022/06/21 04:31:04;;;;;;;;;15.75;12.75;;;;;;;;5057961;27;51127;-57
2022/06/21 04:33:52;;;;;;;;;15.25;11.75;;;;;;;;5052704;28;51106;-58
2022/06/21 04:36:38;;;;;;;;;15.00;11.75;;;;;;;;5049106;28;51040;-58
2022/06/21 04:39:35;;;;;;;;;15.00;11.00;;;;;;;;5048431;28;51129;-58
2022/06/21 04:42:20;;;;;;;;;16.75;15.00;;;;;;;;5058064;28;51349;-59
2022/06/21 04:45:18;;;;;;;;;14.50;11.75;;;;;;;;5061909;28;51164;-58
2022/06/21 04:48:24;;;;;;;;;18.25;16.00;;;;;;;;5061319;28;51399;-58
2022/06/21 04:51:11;;;;;;;;;15.50;13.50;;;;;;;;5056132;28;51141;-57
2022/06/21 04:54:01;;;;;;;;;16.50;16.00;;;;;;;;5061405;28;51140;-58
2022/06/21 04:56:57;;;;;;;;;17.00;16.50;;;;;;;;5061159;28;51213;-58
2022/06/21 04:59:47;;;;;;;;;21.00;18.50;;;;;;;;5060953;28;51540;-58
2022/06/21 05:02:38;;;;;;;;;26.25;21.00;;;;;;;;5060887;28;51312;-57
2022/06/21 05:05:26;;;;;;;;;23.25;19.25;;;;;;;;5061399;28;51108;-57
2022/06/21 05:08:17;;;;;;;;;25.00;22.75;;;;;;;;5060957;28;51091;-57
2022/06/21 05:11:02;;;;;;;;;24.25;22.00;;;;;;;;5061317;28;51143;-57
2022/06/21 05:13:50;;;;;;;;;23.00;19.25;;;;;;;;5060741;28;51040;-58
2022/06/21 05:16:37;;;;;;;;;20.50;19.25;;;;;;;;5060568;28;51222;-57
2022/06/21 05:19:42;;;;;;;;;19.25;16.50;;;;;;;;5060820;28;51042;-58
2022/06/21 05:22:28;;;;;;;;;24.00;17.50;;;;;;;;5054810;28;51024;-58
2022/06/21 05:25:26;;;;;;;;;20.00;18.50;;;;;;;;5060862;28;51356;-57
2022/06/21 05:28:34;;;;;;;;;19.00;15.25;;;;;;;;5060349;28;51103;-58
2022/06/21 05:31:20;;;;;;;;;20.75;16.50;;;;;;;;5060063;28;51472;-57
2022/06/21 05:34:06;;;;;;;;;20.75;17.00;;;;;;;;5060382;28;51089;-58
2022/06/21 05:37:01;;;;;;;;;15.00;14.50;;;;;;;;5060711;28;51062;-58
2022/06/21 05:39:48;;;;;;;;;18.75;16.25;;;;;;;;5060164;28;51060;-57
2022/06/21 05:42:32;;;;;;;;;18.75;16.50;;;;;;;;5060488;28;51159;-58
2022/06/21 05:45:16;;;;;;;;;19.50;14.75;;;;;;;;5060493;28;51543;-57
2022/06/21 05:48:08;;;;;;;;;17.00;15.25;;;;;;;;5057300;28;51051;-58
2022/06/21 05:50:53;;;;;;;;;23.00;18.25;;;;;;;;5052889;28;51377;-58
2022/06/21 05:53:39;;;;;;;;;23.00;19.50;;;;;;;;5060429;28;51177;-57
2022/06/21 05:56:25;;;;;;;;;24.25;23.00;;;;;;;;5060422;28;51549;-58
2022/06/21 05:59:13;;;;;;;;;19.75;19.75;;;;;;;;5060297;28;51212;-58
2022/06/21 06:02:08;;;;;;;;;22.00;19.75;;;;;;;;5060340;28;51002;-57
2022/06/21 06:04:57;;;;;;;;;21.75;18.00;;;;;;;;5059438;28;51149;-58
2022/06/21 06:07:54;;;;;;;;;25.50;21.50;;;;;;;;5060160;28;51151;-58
2022/06/21 06:10:40;;;;;;;;;28.75;19.50;;;;;;;;5060092;28;51533;-57
2022/06/21 06:13:27;;;;;;;;;22.50;19.50;;;;;;;;5060041;28;51019;-58
2022/06/21 06:16:26;;;;;;;;;26.50;24.50;;;;;;;;5059509;28;51411;-57
2022/06/21 06:19:16;;;;;;;;;24.50;22.75;;;;;;;;5059694;28;51070;-57
2022/06/21 06:22:07;;;;;;;;;25.00;24.00;;;;;;;;5059566;28;51190;-58
2022/06/21 06:24:54;;;;;;;;;34.00;26.75;;;;;;;;5059779;28;51208;-57
2022/06/21 06:27:50;;;;;;;;;29.25;23.75;;;;;;;;5060244;28;50998;-58
2022/06/21 06:30:39;;;;;;;;;29.00;27.50;;;;;;;;5059381;28;52004;-58
2022/06/21 06:33:26;;;;;;;;;27.00;26.00;;;;;;;;5059689;28;51142;-58
2022/06/21 06:36:14;;;;;;;;;28.25;24.00;;;;;;;;5059249;28;51546;-58
2022/06/21 06:38:59;;;;;;;;;26.50;24.25;;;;;;;;5059646;28;51047;-58
2022/06/21 06:41:46;;;;;;;;;26.00;22.50;;;;;;;;5060718;27;51071;-57
2022/06/21 06:44:38;;;;;;;;;29.25;25.00;;;;;;;;5059115;28;51153;-58
2022/06/21 06:47:29;;;;;;;;;36.25;27.75;;;;;;;;5059115;28;51596;-58
2022/06/21 06:50:39;;;;;;;;;29.00;27.75;;;;;;;;5059120;28;51071;-59
2022/06/21 06:53:29;;;;;;;;;26.75;24.00;;;;;;;;5059610;28;51218;-58
2022/06/21 06:56:19;;;;;;;;;18.75;18.75;;;;;;;;5059039;28;51478;-58
2022/06/21 06:59:07;;;;;;;;;21.75;19.25;;;;;;;;5059512;28;51167;-58
2022/06/21 07:02:04;;;;;;;;;22.75;21.25;;;;;;;;5059875;28;51650;-58
2022/06/21 07:04:52;;;;;;;;;18.50;15.75;;;;;;;;5054472;28;51203;-58
2022/06/21 07:07:41;;;;;;;;;17.75;17.25;;;;;;;;5063701;28;51839;-57
2022/06/21 07:10:26;;;;;;;;;12.25;7.50;;;;;;;;5071957;27;51136;-58
2022/06/21 07:13:11;;;;;;;;;21.50;17.75;;;;;;;;5061132;28;51158;-58
2022/06/21 07:16:03;;;;;;;;;26.00;20.25;;;;;;;;5061839;28;51166;-58
2022/06/21 07:18:49;;;;;;;;;21.75;20.50;;;;;;;;5056238;28;51159;-57
2022/06/21 07:21:34;;;;;;;;;22.75;21.50;;;;;;;;5062947;28;51113;-58
2022/06/21 07:24:19;;;;;;;;;24.50;17.75;;;;;;;;5062630;28;51156;-59
2022/06/21 07:27:05;;;;;;;;;17.75;16.50;;;;;;;;5062928;28;51112;-58
2022/06/21 07:30:02;;;;;;;;;18.00;14.25;;;;;;;;5063391;28;51242;-58
2022/06/21 07:32:53;;;;;;;;;14.75;12.75;;;;;;;;5062784;28;51155;-59
2022/06/21 07:35:45;;;;;;;;;22.25;15.75;;;;;;;;5064805;27;51167;-57
2022/06/21 07:38:47;;;;;;;;;22.50;19.50;;;;;;;;5065777;27;51140;-58
2022/06/21 07:41:36;;;;;;;;;23.50;21.00;;;;;;;;5072439;27;51153;-59
2022/06/21 10:18:47;;;;;;;;;13.25;13.00;;;;;;;;4388671;32;51156;-51
2022/06/21 10:21:47;;;;;;;;;13.25;12.75;;;;;;;;5117985;27;51185;-54
2022/06/21 10:24:54;;;;;;;;;14.00;12.00;;;;;;;;5117648;27;51020;-54
2022/06/21 10:28:05;;;;;;;;;16.50;13.25;;;;;;;;5116268;27;51080;-50
2022/06/21 10:31:07;;;;;;;;;15.00;11.75;;;;;;;;5096831;27;51018;-54
2022/06/21 10:34:10;;;;;;;;;11.50;10.50;;;;;;;;5117691;27;51144;-51
2022/06/21 10:37:04;;;;;;;;;16.00;11.75;;;;;;;;5117951;27;51183;-54
2022/06/21 10:39:48;;;;;;;;;15.75;13.75;;;;;;;;5116908;27;51045;-52
2022/06/21 10:42:48;;;;;;;;;14.50;14.25;;;;;;;;5117310;27;51564;-54
2022/06/21 10:45:35;;;;;;;;;14.25;12.00;;;;;;;;5117042;27;51174;-55
2022/06/21 10:48:25;;;;;;;;;19.00;17.50;;;;;;;;5117540;27;51097;-52
2022/06/21 10:51:18;;;;;;;;;13.50;13.50;;;;;;;;5117324;27;51350;-54
2022/06/21 10:54:03;;;;;;;;;13.00;12.50;;;;;;;;5117350;27;51466;-53
2022/06/21 10:57:13;;;;;;;;;13.75;12.50;;;;;;;;5117079;27;51239;-53
2022/06/21 11:03:11;;;;;;;;;13.50;11.00;;;;;;;;5105889;27;51058;-54
2022/06/21 11:06:07;;;;;;;;;15.75;10.25;;;;;;;;5111432;27;51043;-52
2022/06/21 11:09:10;;;;;;;;;13.25;10.75;;;;;;;;5098264;27;51097;-53
2022/06/21 11:15:27;;;;;;;;;18.25;16.00;;;;;;;;5053143;28;51230;-55
2022/06/21 11:18:29;;;;;;;;;16.00;14.00;;;;;;;;5103759;27;51152;-54
2022/06/21 11:21:22;;;;;;;;;18.25;14.50;;;;;;;;5102835;27;51005;-52
2022/06/21 11:24:16;;;;;;;;;14.25;12.50;;;;;;;;5102635;27;51547;-53
2022/06/21 11:27:09;;;;;;;;;16.00;14.25;;;;;;;;5102033;27;50977;-55
2022/06/21 11:30:06;;;;;;;;;12.00;10.25;;;;;;;;5102676;27;51203;-54
2022/06/21 11:32:50;;;;;;;;;13.00;12.25;;;;;;;;5102460;27;51216;-53
2022/06/21 11:35:38;;;;;;;;;17.00;9.75;;;;;;;;5102731;27;51670;-54
2022/06/21 11:39:00;;;;;;;;;14.00;12.75;;;;;;;;5101903;27;51002;-52
2022/06/21 11:42:05;;;;;;;;;13.25;13.00;;;;;;;;5019122;28;51117;-55
2022/06/21 11:44:50;;;;;;;;;19.75;15.50;;;;;;;;5018913;28;51560;-53
2022/06/21 11:47:34;;;;;;;;;16.25;11.00;;;;;;;;5100187;27;52271;-52
2022/06/21 11:50:26;;;;;;;;;11.75;11.75;;;;;;;;5102073;27;51499;-51
2022/06/21 11:53:21;;;;;;;;;14.75;11.00;;;;;;;;5099883;27;51105;-53
2022/06/21 11:56:10;;;;;;;;;11.00;11.00;;;;;;;;5097559;27;52593;-54
2022/06/21 11:58:54;;;;;;;;;11.50;11.50;;;;;;;;5085924;27;51541;-54
2022/06/21 12:01:45;;;;;;;;;11.00;11.00;;;;;;;;5102024;27;51164;-52
2022/06/21 12:04:39;;;;;;;;;13.50;11.50;;;;;;;;5086545;27;52319;-54
2022/06/21 12:07:31;;;;;;;;;13.50;10.75;;;;;;;;5098579;27;51381;-52
2022/06/21 12:10:15;;;;;;;;;12.25;7.75;;;;;;;;5101845;27;51469;-53
2022/06/21 12:13:19;;;;;;;;;11.25;9.50;;;;;;;;5101662;27;51333;-53
2022/06/21 12:16:03;;;;;;;;;12.25;10.25;;;;;;;;5101797;27;51116;-54
2022/06/21 12:18:57;;;;;;;;;9.25;9.25;;;;;;;;5060520;28;51046;-53
2022/06/21 12:21:49;;;;;;;;;8.50;7.00;;;;;;;;5061030;28;51054;-55
2022/06/21 12:24:33;;;;;;;;;4.50;4.50;;;;;;;;5060884;28;51109;-54
2022/06/21 12:27:18;;;;;;;;;4.75;2.50;;;;;;;;5060948;28;51137;-53
2022/06/21 12:30:13;;;;;;;;;4.75;2.00;;;;;;;;5059659;28;51093;-55
2022/06/21 12:33:01;;;;;;;;;40.25;31.75;;;;;;;;5061065;28;51245;-55
2022/06/21 12:35:51;;;;;;;;;12.50;10.50;;;;;;;;5060377;28;51439;-52
2022/06/21 12:38:40;;;;;;;;;13.25;8.25;;;;;;;;5059548;28;51119;-53
2022/06/21 12:41:51;;;;;;;;;47.25;37.00;;;;;;;;5042175;28;51588;-53
2022/06/21 12:44:54;;;;;;;;;45.25;34.75;;;;;;;;5073324;27;51159;-54
2022/06/21 12:48:08;;;;;;;;;56.25;43.25;;;;;;;;5056516;28;51243;-55
2022/06/21 12:50:52;;;;;;;;;12.75;9.50;;;;;;;;5054316;28;51251;-54
2022/06/21 12:53:36;;;;;;;;;8.75;6.50;;;;;;;;5060105;28;51422;-53
2022/06/21 12:56:31;;;;;;;;;6.75;4.75;;;;;;;;5059733;28;51114;-53
2022/06/21 12:59:15;;;;;;;;;4.75;1.25;;;;;;;;5059842;28;51128;-52
2022/06/21 13:01:59;;;;;;;;;4.75;3.50;;;;;;;;5059688;28;51432;-54
2022/06/21 13:04:51;;;;;;;;;6.00;4.00;;;;;;;;5059994;28;51173;-53
2022/06/21 13:07:38;;;;;;;;;3.75;2.75;;;;;;;;5059337;28;51296;-57
2022/06/21 13:10:23;;;;;;;;;2.75;2.00;;;;;;;;5059445;28;51019;-53
2022/06/21 13:13:22;;;;;;;;;3.00;3.00;;;;;;;;5060127;28;51102;-53
2022/06/21 13:16:06;;;;;;;;;4.50;3.00;;;;;;;;5056097;28;51335;-54
2022/06/21 13:18:56;;;;;;;;;6.00;3.25;;;;;;;;5059563;28;50979;-55
2022/06/21 13:21:40;;;;;;;;;1.00;1.00;;;;;;;;5059220;28;51144;-54
2022/06/21 13:24:25;;;;;;;;;2.00;1.75;;;;;;;;5059866;28;51081;-56
2022/06/21 13:27:30;;;;;;;;;5.00;4.00;;;;;;;;5056704;28;51170;-55
2022/06/21 13:30:33;;;;;;;;;2.50;1.00;;;;;;;;5057019;28;51156;-57
2022/06/21 13:33:24;;;;;;;;;3.25;1.00;;;;;;;;5059730;28;51361;-55
2022/06/21 13:36:15;;;;;;;;;2.00;0.75;;;;;;;;5053165;28;51216;-56
2022/06/21 13:39:11;;;;;;;;;1.00;1.00;;;;;;;;5059520;28;51350;-56
2022/06/21 13:45:17;;;;;;;;;4.75;3.00;;;;;;;;5052300;28;51042;-56
2022/06/21 13:48:01;;;;;;;;;1.75;0.50;;;;;;;;5058238;28;51101;-55
2022/06/21 13:50:49;;;;;;;;;1.00;0.00;;;;;;;;5059036;28;51122;-56
2022/06/21 13:53:52;;;;;;;;;2.25;1.50;;;;;;;;5058340;28;51377;-56
2022/06/21 13:56:42;;;;;;;;;1.50;0.75;;;;;;;;5058553;28;51148;-56
2022/06/21 13:59:30;;;;;;;;;3.50;0.25;;;;;;;;5058172;28;51426;-56
2022/06/21 14:02:26;;;;;;;;;2.00;1.00;;;;;;;;5058390;28;51196;-55
2022/06/21 14:05:10;;;;;;;;;4.25;0.00;;;;;;;;5056685;28;52187;-55
2022/06/21 14:08:03;;;;;;;;;2.25;0.00;;;;;;;;5051787;28;51130;-56
2022/06/21 14:10:51;;;;;;;;;0.25;0.25;;;;;;;;5058958;28;51121;-55
2022/06/21 14:13:58;;;;;;;;;0.00;0.00;;;;;;;;5058347;28;51058;-56
2022/06/21 14:16:46;;;;;;;;;0.75;0.75;;;;;;;;5065225;27;51118;-54
2022/06/21 14:19:37;;;;;;;;;0.00;0.00;;;;;;;;5099276;27;51536;-55
2022/06/21 14:22:26;;;;;;;;;0.50;0.00;;;;;;;;5099718;27;51149;-54
2022/06/21 14:25:10;;;;;;;;;1.00;0.00;;;;;;;;5084318;27;51160;-55
2022/06/21 14:28:13;;;;;;;;;1.00;0.00;;;;;;;;5083196;27;51177;-58
2022/06/21 14:31:03;;;;;;;;;1.25;0.75;;;;;;;;5083815;27;51136;-54
2022/06/21 14:34:05;;;;;;;;;0.50;0.50;;;;;;;;5099379;27;51148;-57
2022/06/21 14:36:53;;;;;;;;;2.00;0.00;;;;;;;;5099034;27;51135;-57
2022/06/21 14:40:00;;;;;;;;;1.75;0.00;;;;;;;;5093952;27;51138;-57
2022/06/21 14:42:49;;;;;;;;;2.25;1.75;;;;;;;;5099097;27;51111;-57
2022/06/21 14:45:34;;;;;;;;;1.00;0.00;;;;;;;;5099260;27;51132;-56
2022/06/21 14:48:25;;;;;;;;;1.25;0.25;;;;;;;;5097640;27;51110;-58
2022/06/21 14:51:17;;;;;;;;;0.00;0.00;;;;;;;;5099644;27;51107;-57
2022/06/21 14:54:11;;;;;;;;;5.00;1.00;;;;;;;;5101869;27;51263;-56
2022/06/21 14:56:58;;;;;;;;;3.75;0.50;;;;;;;;5103812;27;51184;-57
2022/06/21 14:59:50;;;;;;;;;0.75;0.75;;;;;;;;5096729;27;51055;-57
2022/06/21 15:02:37;;;;;;;;;2.00;1.50;;;;;;;;5095838;27;50991;-57
2022/06/21 15:05:25;;;;;;;;;0.75;0.75;;;;;;;;5102925;27;51165;-57
2022/06/21 15:08:09;;;;;;;;;2.00;0.00;;;;;;;;5103405;27;51065;-57
2022/06/21 15:11:13;;;;;;;;;4.75;2.00;;;;;;;;5103036;27;51409;-57
2022/06/21 15:14:01;;;;;;;;;2.25;0.75;;;;;;;;5098220;27;51123;-57
2022/06/21 15:16:55;;;;;;;;;6.00;2.50;;;;;;;;5103054;27;51045;-58
2022/06/21 15:19:59;;;;;;;;;2.25;2.00;;;;;;;;5102612;27;51156;-58
2022/06/21 15:22:46;;;;;;;;;8.25;2.50;;;;;;;;5102868;27;51272;-56
2022/06/21 15:25:30;;;;;;;;;0.50;0.50;;;;;;;;5102456;27;51006;-57
2022/06/21 15:28:17;;;;;;;;;5.00;1.25;;;;;;;;5102984;27;51429;-58
2022/06/21 15:31:35;;;;;;;;;0.75;0.75;;;;;;;;5102884;27;50990;-57
2022/06/21 15:34:29;;;;;;;;;1.75;1.75;;;;;;;;5103145;27;51081;-57
2022/06/21 15:37:24;;;;;;;;;8.00;5.00;;;;;;;;5102455;27;51212;-57
2022/06/21 15:40:20;;;;;;;;;3.50;2.75;;;;;;;;5102637;27;51180;-57
2022/06/21 15:43:12;;;;;;;;;3.00;1.25;;;;;;;;5096102;27;51336;-57
2022/06/21 15:46:00;;;;;;;;;3.25;2.25;;;;;;;;5102228;27;51160;-56
2022/06/21 15:52:04;;;;;;;;;1.75;0.50;;;;;;;;5102111;27;51195;-57
2022/06/21 15:54:55;;;;;;;;;2.75;0.75;;;;;;;;5102100;27;51441;-58
2022/06/21 15:57:53;;;;;;;;;1.00;1.00;;;;;;;;5102208;27;51437;-58
2022/06/21 16:00:41;;;;;;;;;2.75;0.75;;;;;;;;5090426;27;51130;-58
2022/06/21 16:03:31;;;;;;;;;2.50;0.75;;;;;;;;5101499;27;51417;-58
2022/06/21 16:06:28;;;;;;;;;3.00;0.75;;;;;;;;5101381;27;51127;-58
2022/06/21 16:09:14;;;;;;;;;1.50;1.50;;;;;;;;5101458;27;51811;-58
2022/06/21 16:12:17;;;;;;;;;1.50;0.75;;;;;;;;5101639;27;51177;-57
2022/06/21 16:15:10;;;;;;;;;4.25;1.25;;;;;;;;5101503;27;51127;-58
2022/06/21 16:18:01;;;;;;;;;10.00;6.00;;;;;;;;5101027;27;51102;-58
2022/06/21 16:20:47;;;;;;;;;3.75;0.75;;;;;;;;5094764;27;51319;-57
2022/06/21 16:23:37;;;;;;;;;4.00;1.75;;;;;;;;5101010;27;51139;-57
2022/06/21 16:26:40;;;;;;;;;8.25;6.75;;;;;;;;5101498;27;51010;-58
2022/06/21 16:29:31;;;;;;;;;2.50;0.00;;;;;;;;5101097;27;51221;-58
2022/06/21 16:35:28;;;;;;;;;3.25;0.50;;;;;;;;5101077;27;51157;-59
2022/06/21 16:38:12;;;;;;;;;4.00;2.75;;;;;;;;5100250;27;51044;-57
2022/06/21 16:44:04;;;;;;;;;4.00;1.25;;;;;;;;5100703;27;51065;-57
2022/06/21 16:46:53;;;;;;;;;0.50;0.50;;;;;;;;5100736;27;51257;-58
2022/06/21 16:49:39;;;;;;;;;3.00;1.75;;;;;;;;5100686;27;51221;-57
2022/06/21 16:52:30;;;;;;;;;3.75;2.00;;;;;;;;5101152;27;51089;-58
2022/06/21 16:55:16;;;;;;;;;3.50;2.25;;;;;;;;5100500;27;51498;-57
2022/06/21 16:58:05;;;;;;;;;4.25;1.25;;;;;;;;5100349;27;51054;-57
2022/06/21 17:00:55;;;;;;;;;2.75;1.00;;;;;;;;5100673;27;51046;-58
2022/06/21 17:03:40;;;;;;;;;3.00;1.50;;;;;;;;5095202;27;51164;-57
2022/06/21 17:06:24;;;;;;;;;3.50;2.00;;;;;;;;5100433;27;51147;-56
2022/06/21 17:09:09;;;;;;;;;2.50;1.75;;;;;;;;5100552;27;51035;-57
2022/06/21 17:12:13;;;;;;;;;4.75;1.25;;;;;;;;5094053;27;51135;-57
2022/06/21 17:14:59;;;;;;;;;3.75;2.50;;;;;;;;5100297;27;51162;-58
2022/06/21 17:17:43;;;;;;;;;1.25;1.25;;;;;;;;5099987;27;51129;-58
2022/06/21 17:20:36;;;;;;;;;2.50;1.00;;;;;;;;5100167;27;51402;-58
2022/06/21 17:23:27;;;;;;;;;1.00;1.00;;;;;;;;5099977;27;51092;-58
2022/06/21 17:26:25;;;;;;;;;3.50;1.75;;;;;;;;5100523;27;51388;-58
2022/06/21 17:29:23;;;;;;;;;6.50;2.75;;;;;;;;5100126;27;51099;-58
2022/06/21 17:32:09;;;;;;;;;0.00;0.00;;;;;;;;5098772;27;51170;-58
2022/06/21 17:35:03;;;;;;;;;4.00;2.50;;;;;;;;5099766;27;51158;-58
2022/06/21 17:37:56;;;;;;;;;9.75;6.50;;;;;;;;5100203;27;51070;-57
2022/06/21 17:40:59;;;;;;;;;4.00;2.25;;;;;;;;5099620;27;51187;-58
2022/06/21 17:44:02;;;;;;;;;6.00;3.00;;;;;;;;5094129;27;51023;-58
2022/06/21 17:46:51;;;;;;;;;3.25;3.00;;;;;;;;5094920;27;51445;-58
2022/06/21 17:49:37;;;;;;;;;3.00;2.00;;;;;;;;5100202;27;51137;-57
2022/06/21 17:52:24;;;;;;;;;10.00;4.00;;;;;;;;5097925;27;51444;-58
2022/06/21 17:55:15;;;;;;;;;11.75;11.75;;;;;;;;5098448;27;51094;-59
2022/06/21 17:58:12;;;;;;;;;6.50;2.75;;;;;;;;5099982;27;51520;-59
2022/06/21 18:01:05;;;;;;;;;6.50;4.50;;;;;;;;5100046;27;51134;-58
2022/06/21 18:03:57;;;;;;;;;2.75;2.75;;;;;;;;5100133;27;51078;-58
2022/06/21 18:06:49;;;;;;;;;10.25;7.50;;;;;;;;5099741;27;51078;-58
2022/06/21 18:09:42;;;;;;;;;3.50;2.00;;;;;;;;5084529;27;51132;-58
2022/06/21 18:12:39;;;;;;;;;2.75;2.75;;;;;;;;5099348;27;51440;-57
2022/06/21 18:15:28;;;;;;;;;3.75;2.50;;;;;;;;5099628;27;51086;-58
2022/06/21 18:18:25;;;;;;;;;4.75;3.00;;;;;;;;5099604;27;51266;-58
2022/06/21 18:21:23;;;;;;;;;5.00;5.00;;;;;;;;5099828;27;51136;-58
2022/06/21 18:24:26;;;;;;;;;13.00;10.75;;;;;;;;5099768;27;51363;-57
2022/06/21 18:27:13;;;;;;;;;3.00;3.00;;;;;;;;5099740;27;51139;-58
2022/06/21 18:30:16;;;;;;;;;5.25;2.25;;;;;;;;5103808;27;51130;-58
2022/06/21 18:33:03;;;;;;;;;2.75;2.25;;;;;;;;5094986;27;51415;-59
2022/06/21 18:36:04;;;;;;;;;2.25;1.75;;;;;;;;5104003;27;51197;-58
2022/06/21 18:39:07;;;;;;;;;7.75;6.50;;;;;;;;5087096;27;51047;-59
2022/06/21 18:42:06;;;;;;;;;2.50;2.00;;;;;;;;5103674;27;51011;-58
2022/06/21 18:44:58;;;;;;;;;17.00;10.75;;;;;;;;5102568;27;52301;-58
2022/06/21 18:47:50;;;;;;;;;5.50;3.50;;;;;;;;5102577;27;51097;-58
2022/06/21 18:50:38;;;;;;;;;4.00;2.75;;;;;;;;5103284;27;51956;-58
2022/06/21 18:53:39;;;;;;;;;5.75;3.00;;;;;;;;5103720;27;51086;-58
2022/06/21 18:56:23;;;;;;;;;3.75;3.00;;;;;;;;5103581;27;51117;-57
2022/06/21 18:59:10;;;;;;;;;3.50;1.75;;;;;;;;5103254;27;51048;-59
2022/06/21 19:02:03;;;;;;;;;7.50;4.00;;;;;;;;5103477;27;51077;-59
2022/06/21 19:11:11;;;;;;;;;7.75;1.25;;;;;;;;5095272;27;51224;-58
2022/06/21 19:14:06;;;;;;;;;6.50;5.00;;;;;;;;5100513;27;51384;-58
2022/06/21 19:16:56;;;;;;;;;3.50;2.50;;;;;;;;5101400;27;51482;-57
2022/06/21 19:20:01;;;;;;;;;4.25;3.00;;;;;;;;5102140;27;51156;-58
2022/06/21 19:22:52;;;;;;;;;5.50;4.00;;;;;;;;5100793;27;51204;-58
2022/06/21 19:25:36;;;;;;;;;5.50;3.00;;;;;;;;5102013;27;51162;-58
2022/06/21 19:28:35;;;;;;;;;4.00;3.50;;;;;;;;5102445;27;51133;-58
2022/06/21 19:31:52;;;;;;;;;6.50;3.25;;;;;;;;5099605;27;51521;-58
2022/06/21 19:34:52;;;;;;;;;6.50;2.00;;;;;;;;5097346;27;51160;-59
2022/06/21 19:37:37;;;;;;;;;4.25;1.00;;;;;;;;5086850;27;51233;-58
2022/06/21 19:40:27;;;;;;;;;1.25;1.00;;;;;;;;5084528;27;51047;-59
2022/06/21 19:43:32;;;;;;;;;17.25;14.25;;;;;;;;5096847;27;51183;-58
2022/06/21 19:46:36;;;;;;;;;2.00;2.00;;;;;;;;5101726;27;51150;-59
2022/06/21 19:49:32;;;;;;;;;8.50;5.00;;;;;;;;5102172;27;51064;-58
2022/06/21 19:52:22;;;;;;;;;2.75;2.00;;;;;;;;5084098;27;51223;-58
2022/06/21 19:55:07;;;;;;;;;3.00;2.00;;;;;;;;5100537;27;51176;-58
2022/06/21 19:58:10;;;;;;;;;3.00;1.25;;;;;;;;5102084;27;51537;-58